Time;durP1;ratioP1;P1;durP2;ratioP2;P2;SDS_P1;SDS_P2;PMS_P1;PMS_P2;Temp;Humidity;BMP_temperature;BMP_pressure;BME280_temperature;BME280_humidity;BME280_pressure;Samples;Min_cycle;Max_cycle;Signal;HPM_P1;HPM_P2
2021/12/21 00:00:17;;;;;;;169.23;58.25;;;;;;;-1.75;100.00;98705.19;5120175;28;20031;-86
2021/12/21 00:02:47;;;;;;;173.38;57.38;;;;;;;-1.80;100.00;98713.00;5133864;28;20028;-87
2021/12/21 00:05:19;;;;;;;143.30;52.97;;;;;;;-1.85;100.00;98714.63;5121813;28;20028;-84
2021/12/21 00:07:48;;;;;;;134.50;53.08;;;;;;;-1.90;100.00;98715.22;5110218;28;20084;-81
2021/12/21 00:10:14;;;;;;;163.25;55.90;;;;;;;-1.80;100.00;98714.84;5119056;28;20035;-79
2021/12/21 00:12:49;;;;;;;132.85;51.50;;;;;;;-1.91;100.00;98723.47;5132241;28;20024;-84
2021/12/21 00:15:38;;;;;;;140.68;51.47;;;;;;;-2.01;100.00;98712.25;5117472;28;20528;-87
2021/12/21 00:25:42;;;;;;;124.60;50.80;;;;;;;-1.77;100.00;98719.81;5128145;28;20028;-85
2021/12/21 00:28:07;;;;;;;122.90;52.22;;;;;;;-1.81;100.00;98722.06;5122178;28;20023;-85
2021/12/21 00:30:33;;;;;;;119.60;50.90;;;;;;;-1.77;100.00;98726.00;5121328;28;20022;-82
2021/12/21 00:32:58;;;;;;;118.60;50.35;;;;;;;-1.74;100.00;98722.09;5132017;28;20034;-83
2021/12/21 00:35:24;;;;;;;131.55;53.80;;;;;;;-1.74;100.00;98722.09;5123151;28;20107;-85
2021/12/21 00:37:50;;;;;;;137.70;52.45;;;;;;;-1.76;100.00;98726.84;5114583;28;20403;-82
2021/12/21 00:40:15;;;;;;;115.78;51.08;;;;;;;-1.70;100.00;98715.31;5117748;28;20469;-86
2021/12/21 00:42:41;;;;;;;119.65;52.47;;;;;;;-1.70;100.00;98723.38;5119311;28;20043;-83
2021/12/21 00:45:07;;;;;;;100.85;47.30;;;;;;;-1.62;100.00;98725.88;5117116;28;20396;-83
2021/12/21 00:47:35;;;;;;;126.47;54.13;;;;;;;-1.63;100.00;98727.72;5115774;28;20023;-87
2021/12/21 00:50:03;;;;;;;113.85;50.10;;;;;;;-1.65;100.00;98724.41;5116259;28;20034;-86
2021/12/21 00:52:29;;;;;;;120.75;51.40;;;;;;;-1.57;100.00;98728.81;5115538;28;20103;-82
2021/12/21 00:54:55;;;;;;;135.05;54.25;;;;;;;-1.53;100.00;98730.03;5115606;28;20015;-82
2021/12/21 00:57:21;;;;;;;107.72;47.67;;;;;;;-1.53;100.00;98729.19;5116114;28;20069;-78
2021/12/21 00:59:46;;;;;;;106.03;48.10;;;;;;;-1.44;100.00;98731.53;5114637;28;20059;-79
2021/12/21 01:02:12;;;;;;;96.80;48.25;;;;;;;-1.40;100.00;98731.94;5113404;28;20031;-82
2021/12/21 01:04:43;;;;;;;86.80;44.00;;;;;;;-1.40;100.00;98737.31;5113683;28;20031;-82
2021/12/21 01:15:20;;;;;;;104.80;46.95;;;;;;;-1.55;100.00;98740.16;5113790;28;20395;-79
2021/12/21 01:17:54;;;;;;;94.43;45.05;;;;;;;-1.50;100.00;98737.69;5114567;28;20093;-79
2021/12/21 01:23:31;;;;;;;89.10;43.50;;;;;;;-1.43;100.00;98746.59;5114449;28;20031;-82
2021/12/21 01:26:03;;;;;;;92.25;43.92;;;;;;;-1.32;100.00;98746.03;5114469;28;20080;-79
2021/12/21 01:28:56;;;;;;;91.75;43.13;;;;;;;-1.33;100.00;98749.75;5114195;28;20023;-80
2021/12/21 01:33:58;;;;;;;94.78;46.33;;;;;;;-1.28;100.00;98741.91;5113666;28;20011;-83
2021/12/21 01:36:36;;;;;;;77.35;40.70;;;;;;;-1.17;100.00;98741.34;5113905;28;20032;-82
2021/12/21 01:41:56;;;;;;;76.78;42.35;;;;;;;-1.17;100.00;98746.72;5114140;27;20042;-80
2021/12/21 01:49:51;;;;;;;89.38;40.83;;;;;;;-1.36;100.00;98735.91;5114001;28;20035;-77
2021/12/21 01:52:20;;;;;;;83.18;42.90;;;;;;;-1.37;100.00;98731.56;5111602;28;20019;-79
2021/12/21 01:54:47;;;;;;;69.75;39.30;;;;;;;-1.56;100.00;98725.06;5108081;28;20024;-80
2021/12/21 01:57:13;;;;;;;70.80;38.33;;;;;;;-1.49;100.00;98738.50;5106532;28;20039;-81
2021/12/21 01:59:41;;;;;;;72.70;37.70;;;;;;;-1.47;100.00;98731.13;5098136;28;20027;-82
2021/12/21 02:02:08;;;;;;;74.47;40.33;;;;;;;-1.47;100.00;98723.88;5112403;28;20020;-79
2021/12/21 02:04:38;;;;;;;72.15;38.33;;;;;;;-1.51;100.00;98725.31;5112896;28;20086;-79
2021/12/21 02:07:04;;;;;;;65.15;37.58;;;;;;;-1.53;100.00;98713.13;5113166;28;20012;-79
2021/12/21 02:09:37;;;;;;;64.53;36.92;;;;;;;-1.49;100.00;98717.88;5112696;28;20046;-85
2021/12/21 02:12:15;;;;;;;77.07;38.67;;;;;;;-1.43;100.00;98722.44;5112588;28;20034;-81
2021/12/21 02:14:42;;;;;;;73.65;39.10;;;;;;;-1.38;100.00;98721.88;5115090;28;20048;-81
2021/12/21 02:17:41;;;;;;;70.40;38.05;;;;;;;-1.32;100.00;98724.56;5115125;28;20502;-84
2021/12/21 02:20:24;;;;;;;68.40;36.45;;;;;;;-1.30;100.00;98727.88;5115185;28;20037;-81
2021/12/21 02:23:40;;;;;;;72.57;38.95;;;;;;;-1.33;100.00;98722.09;5113423;28;20520;-84
2021/12/21 02:28:34;;;;;;;69.20;37.38;;;;;;;-1.47;100.00;98723.88;5113713;28;20058;-80
2021/12/21 02:31:00;;;;;;;67.53;36.85;;;;;;;-1.58;100.00;98720.94;5111232;28;20032;-83
2021/12/21 02:33:27;;;;;;;71.85;36.33;;;;;;;-1.66;100.00;98721.94;5110533;28;20504;-82
2021/12/21 02:35:53;;;;;;;80.38;41.53;;;;;;;-1.68;100.00;98730.19;5111864;28;20118;-81
2021/12/21 02:38:19;;;;;;;86.55;42.90;;;;;;;-1.69;100.00;98727.69;5110970;28;20028;-79
2021/12/21 02:40:45;;;;;;;88.30;43.03;;;;;;;-1.67;100.00;98731.00;5112973;28;20027;-79
2021/12/21 02:43:13;;;;;;;77.68;38.75;;;;;;;-1.66;100.00;98727.31;5121035;28;20023;-82
2021/12/21 02:45:40;;;;;;;96.32;44.38;;;;;;;-1.76;100.00;98722.31;5106450;28;20028;-82
2021/12/21 02:48:06;;;;;;;96.05;42.05;;;;;;;-1.73;100.00;98721.09;5112066;28;20801;-81
2021/12/21 02:50:32;;;;;;;93.65;44.45;;;;;;;-1.81;100.00;98723.91;5103553;28;20028;-81
2021/12/21 02:52:59;;;;;;;90.13;42.10;;;;;;;-1.86;100.00;98734.41;5091167;28;20527;-78
2021/12/21 02:55:26;;;;;;;94.20;41.83;;;;;;;-1.94;100.00;98727.34;5093498;28;20096;-79
2021/12/21 02:57:52;;;;;;;101.13;44.33;;;;;;;-1.88;100.00;98728.44;5112259;28;20423;-81
2021/12/21 03:00:18;;;;;;;89.10;41.45;;;;;;;-1.87;100.00;98720.16;5111835;28;20015;-83
2021/12/21 03:02:43;;;;;;;99.57;46.08;;;;;;;-1.97;100.00;98722.38;5110560;28;20039;-83
2021/12/21 03:05:09;;;;;;;97.90;44.22;;;;;;;-2.08;100.00;98728.28;5111543;28;20543;-79
2021/12/21 03:10:24;;;;;;;112.53;49.38;;;;;;;-2.04;100.00;98736.75;5110240;28;20066;-84
2021/12/21 03:15:20;;;;;;;103.10;43.50;;;;;;;-1.85;100.00;98739.56;5091061;28;20035;-82
2021/12/21 03:17:45;;;;;;;96.53;44.53;;;;;;;-1.83;100.00;98736.69;5091208;28;20020;-80
2021/12/21 03:20:11;;;;;;;101.63;44.65;;;;;;;-1.82;100.00;98739.19;5091110;28;20019;-82
2021/12/21 03:22:37;;;;;;;85.25;42.08;;;;;;;-1.84;100.00;98740.38;5090966;28;20539;-80
2021/12/21 03:25:03;;;;;;;87.93;40.95;;;;;;;-1.81;100.00;98745.34;5096646;28;20022;-78
2021/12/21 03:27:28;;;;;;;99.28;41.08;;;;;;;-1.90;100.00;98741.19;5111003;28;20053;-81
2021/12/21 03:29:54;;;;;;;97.68;43.35;;;;;;;-1.80;100.00;98745.16;5110043;28;20027;-81
2021/12/21 03:32:19;;;;;;;95.22;44.97;;;;;;;-1.78;100.00;98739.59;5111577;28;20023;-80
2021/12/21 03:34:45;;;;;;;87.22;40.85;;;;;;;-1.85;100.00;98733.38;5111402;28;20392;-84
2021/12/21 03:37:13;;;;;;;92.95;42.60;;;;;;;-1.86;100.00;98739.75;5111413;28;20016;-84
2021/12/21 03:39:41;;;;;;;93.65;43.20;;;;;;;-1.87;100.00;98738.09;5113832;28;20118;-78
2021/12/21 03:42:07;;;;;;;110.20;42.83;;;;;;;-1.78;100.00;98744.97;5114965;28;20023;-82
2021/12/21 03:44:32;;;;;;;104.40;46.53;;;;;;;-1.83;100.00;98747.41;5115127;28;20088;-81
2021/12/21 03:46:58;;;;;;;109.07;44.63;;;;;;;-1.78;100.00;98739.59;5115012;28;20232;-81
2021/12/21 03:52:08;;;;;;;98.13;45.27;;;;;;;-1.93;100.00;98741.56;5119512;28;20032;-78
2021/12/21 03:54:34;;;;;;;105.22;44.13;;;;;;;-1.97;100.00;98745.69;5116438;28;20172;-81
2021/12/21 03:57:01;;;;;;;104.13;43.70;;;;;;;-2.11;100.00;98743.91;5115997;28;20024;-79
2021/12/21 03:59:27;;;;;;;101.45;44.13;;;;;;;-2.14;100.00;98738.97;5115672;28;20020;-83
2021/12/21 04:01:53;;;;;;;108.53;45.17;;;;;;;-2.20;100.00;98740.56;5115461;28;20051;-81
2021/12/21 04:04:19;;;;;;;110.97;45.42;;;;;;;-2.27;100.00;98751.22;5115831;28;20047;-79
2021/12/21 04:06:46;;;;;;;113.10;46.95;;;;;;;-2.49;100.00;98725.50;5115468;28;20068;-81
2021/12/21 04:09:12;;;;;;;102.45;45.53;;;;;;;-2.44;100.00;98743.66;5114951;28;20052;-83
2021/12/21 04:11:38;;;;;;;112.25;47.53;;;;;;;-2.35;100.00;98748.69;5115388;28;20034;-78
2021/12/21 04:14:05;;;;;;;115.40;48.30;;;;;;;-2.39;100.00;98749.28;5115308;28;20469;-82
2021/12/21 04:16:30;;;;;;;101.63;44.72;;;;;;;-2.40;100.00;98750.28;5115076;28;20119;-80
2021/12/21 04:18:56;;;;;;;109.55;45.10;;;;;;;-2.43;100.00;98756.88;5115170;28;20111;-78
2021/12/21 04:21:21;;;;;;;101.47;42.85;;;;;;;-2.42;100.00;98742.47;5115188;28;20110;-83
2021/12/21 04:23:47;;;;;;;104.53;42.28;;;;;;;-2.38;100.00;98741.03;5115529;28;20032;-81
2021/12/21 04:26:14;;;;;;;110.05;42.25;;;;;;;-2.33;100.00;98746.66;5115882;27;20016;-79
2021/12/21 04:28:41;;;;;;;101.07;41.80;;;;;;;-2.35;100.00;98743.31;5115984;28;20036;-79
2021/12/21 04:31:09;;;;;;;108.47;46.08;;;;;;;-2.54;100.00;98744.00;5115745;28;20040;-81
2021/12/21 04:33:34;;;;;;;107.43;44.88;;;;;;;-2.62;100.00;98736.09;5115560;28;20023;-84
2021/12/21 04:36:01;;;;;;;106.88;45.03;;;;;;;-2.80;100.00;98757.13;5115386;28;20032;-79
2021/12/21 04:38:32;;;;;;;116.78;46.15;;;;;;;-2.86;100.00;98761.41;5116653;28;20024;-78
2021/12/21 04:41:08;;;;;;;113.90;46.92;;;;;;;-2.81;100.00;98750.13;5122253;28;20024;-83
2021/12/21 04:43:34;;;;;;;109.20;45.78;;;;;;;-2.85;100.00;98756.88;5120186;28;20044;-80
2021/12/21 04:45:59;;;;;;;116.15;48.53;;;;;;;-2.80;100.00;98752.63;5120528;28;20106;-79
2021/12/21 04:48:25;;;;;;;113.78;46.38;;;;;;;-2.69;100.00;98750.44;5121042;27;20051;-80
2021/12/21 04:50:50;;;;;;;106.35;42.88;;;;;;;-2.85;100.00;98747.00;5115694;28;20039;-78
2021/12/21 04:53:16;;;;;;;101.63;42.80;;;;;;;-2.72;100.00;98751.63;5122958;27;20051;-76
2021/12/21 04:55:41;;;;;;;103.60;43.63;;;;;;;-2.75;100.00;98757.38;5127346;28;20062;-79
2021/12/21 04:58:07;;;;;;;96.90;40.17;;;;;;;-2.94;100.00;98758.84;5115117;28;20536;-79
2021/12/21 05:00:33;;;;;;;98.07;42.92;;;;;;;-2.98;100.00;98754.91;5113383;28;20024;-78
2021/12/21 05:02:59;;;;;;;108.25;44.60;;;;;;;-2.87;100.00;98758.91;5114297;28;20079;-79
2021/12/21 05:05:24;;;;;;;106.93;43.13;;;;;;;-2.76;100.00;98761.91;5113078;28;20118;-80
2021/12/21 05:08:37;;;;;;;111.90;44.50;;;;;;;-2.80;100.00;98759.81;5113724;28;20020;-82
2021/12/21 05:10:47;;;;;;;105.70;44.88;;;;;;;-2.88;100.00;98758.06;5108253;28;20036;-82
2021/12/21 05:13:14;;;;;;;100.43;41.35;;;;;;;-2.89;100.00;98758.28;5112590;28;20527;-78
2021/12/21 05:15:39;;;;;;;96.65;43.05;;;;;;;-2.84;100.00;98748.66;5114228;28;20038;-80
2021/12/21 05:18:05;;;;;;;98.55;43.13;;;;;;;-2.80;100.00;98749.09;5114408;28;20028;-79
2021/12/21 05:20:30;;;;;;;98.05;42.42;;;;;;;-2.59;100.00;98757.13;5114150;27;20422;-82
2021/12/21 05:22:55;;;;;;;108.68;44.13;;;;;;;-2.79;100.00;98764.16;5115208;28;20110;-81
2021/12/21 05:25:21;;;;;;;104.30;44.55;;;;;;;-2.83;100.00;98757.50;5113336;28;20480;-80
2021/12/21 05:27:47;;;;;;;91.85;40.38;;;;;;;-2.80;100.00;98749.94;5114298;28;20019;-79
2021/12/21 05:30:13;;;;;;;93.22;39.55;;;;;;;-2.76;100.00;98764.56;5113958;28;20514;-80
2021/12/21 05:32:39;;;;;;;88.97;38.78;;;;;;;-2.79;100.00;98766.81;5113713;28;20027;-80
2021/12/21 05:35:05;;;;;;;92.03;40.83;;;;;;;-2.67;100.00;98765.28;5113692;28;20040;-81
2021/12/21 05:37:31;;;;;;;86.95;39.28;;;;;;;-2.68;100.00;98766.31;5113503;28;20038;-81
2021/12/21 05:40:08;;;;;;;90.63;39.40;;;;;;;-2.65;100.00;98767.78;5113723;28;20020;-78
2021/12/21 05:42:33;;;;;;;89.72;40.45;;;;;;;-2.75;100.00;98776.09;5127853;28;20028;-81
2021/12/21 05:44:59;;;;;;;97.97;41.63;;;;;;;-2.73;100.00;98776.78;5117417;28;20076;-80
2021/12/21 05:47:24;;;;;;;91.80;40.17;;;;;;;-2.70;100.00;98771.03;5108487;28;20030;-77
2021/12/21 05:49:49;;;;;;;88.35;38.10;;;;;;;-2.79;100.00;98783.69;5112394;28;20047;-77
2021/12/21 05:52:15;;;;;;;97.43;42.92;;;;;;;-2.73;100.00;98785.63;5113906;28;20027;-79
2021/12/21 05:54:40;;;;;;;87.82;38.65;;;;;;;-2.70;100.00;98781.75;5112200;27;20047;-78
2021/12/21 05:57:06;;;;;;;88.47;40.60;;;;;;;-2.73;100.00;98780.28;5112924;28;20459;-80
2021/12/21 05:59:31;;;;;;;95.78;39.60;;;;;;;-2.56;100.00;98783.50;5115344;28;20030;-79
2021/12/21 06:01:59;;;;;;;91.78;39.60;;;;;;;-2.57;100.00;98797.94;5113170;28;20012;-83
2021/12/21 06:04:32;;;;;;;99.82;39.33;;;;;;;-2.55;100.00;98801.25;5113054;28;20080;-77
2021/12/21 06:06:57;;;;;;;92.28;39.22;;;;;;;-2.46;100.00;98810.81;5111263;28;20098;-78
2021/12/21 06:09:23;;;;;;;98.80;43.47;;;;;;;-2.59;100.00;98799.97;5110384;28;20077;-77
2021/12/21 06:27:58;;;;;;;77.13;37.17;;;;;;;-2.53;100.00;98820.63;5107550;28;20042;-76
2021/12/21 06:30:27;;;;;;;83.57;36.22;;;;;;;-2.45;100.00;98822.34;5109065;28;20031;-78
2021/12/21 06:32:53;;;;;;;77.20;35.75;;;;;;;-2.32;100.00;98817.13;5105630;28;20019;-76
2021/12/21 06:35:19;;;;;;;71.28;35.47;;;;;;;-2.42;100.00;98816.63;5105337;28;20031;-77
2021/12/21 06:37:45;;;;;;;80.50;36.05;;;;;;;-2.45;100.00;98817.81;5105377;28;20117;-83
2021/12/21 06:40:10;;;;;;;64.28;33.25;;;;;;;-2.46;100.00;98826.88;5110238;28;20472;-78
2021/12/21 06:42:36;;;;;;;76.95;36.17;;;;;;;-2.47;100.00;98830.56;5110232;27;20365;-79
2021/12/21 06:45:10;;;;;;;76.82;34.63;;;;;;;-2.43;100.00;98831.84;5110120;27;20405;-78
2021/12/21 06:53:04;;;;;;;75.32;34.58;;;;;;;-2.48;100.00;98828.09;5111219;28;20049;-78
2021/12/21 06:55:30;;;;;;;76.93;35.88;;;;;;;-2.50;100.00;98830.09;5112041;28;20031;-79
2021/12/21 06:57:55;;;;;;;66.90;32.60;;;;;;;-2.42;100.00;98841.53;5113673;28;20016;-78
2021/12/21 07:00:21;;;;;;;74.68;34.47;;;;;;;-2.41;100.00;98843.19;5111883;28;20024;-75
2021/12/21 07:02:47;;;;;;;76.45;37.88;;;;;;;-2.46;100.00;98834.91;5112441;28;20042;-78
2021/12/21 07:05:13;;;;;;;71.50;35.58;;;;;;;-2.30;100.00;98844.53;5119025;28;20022;-82
2021/12/21 07:07:39;;;;;;;73.30;35.80;;;;;;;-2.23;100.00;98848.94;5098087;28;20044;-78
2021/12/21 07:10:09;;;;;;;69.15;35.30;;;;;;;-2.32;100.00;98854.63;5090994;28;20085;-78
2021/12/21 07:20:25;;;;;;;67.47;33.72;;;;;;;-2.18;100.00;98851.88;5108182;28;20023;-78
2021/12/21 07:22:51;;;;;;;72.93;35.58;;;;;;;-2.08;100.00;98840.00;5107869;28;20404;-79
2021/12/21 07:25:17;;;;;;;66.90;34.08;;;;;;;-2.01;100.00;98844.41;5110874;28;20024;-77
2021/12/21 07:27:43;;;;;;;64.65;31.83;;;;;;;-2.02;100.00;98841.91;5109719;28;20047;-79
2021/12/21 07:30:09;;;;;;;73.90;32.72;;;;;;;-1.87;100.00;98846.16;5109155;28;20389;-78
2021/12/21 07:32:36;;;;;;;68.95;32.47;;;;;;;-2.01;100.00;98846.25;5111732;28;20076;-77
2021/12/21 07:35:02;;;;;;;71.68;33.05;;;;;;;-1.97;100.00;98842.16;5115610;28;20603;-75
2021/12/21 07:37:27;;;;;;;73.32;34.80;;;;;;;-1.87;100.00;98853.34;5119088;28;20034;-77
2021/12/21 07:39:53;;;;;;;73.43;34.00;;;;;;;-1.85;100.00;98843.28;5109356;28;20380;-77
2021/12/21 07:42:19;;;;;;;73.50;35.65;;;;;;;-1.82;100.00;98842.91;5110960;28;20104;-76
2021/12/21 07:44:45;;;;;;;75.03;35.47;;;;;;;-1.70;100.00;98844.03;5109672;28;20030;-77
2021/12/21 07:47:10;;;;;;;78.50;34.85;;;;;;;-1.66;100.00;98850.66;5109340;28;20106;-78
2021/12/21 07:49:36;;;;;;;73.95;35.35;;;;;;;-1.78;100.00;98836.09;5110673;28;20392;-77
2021/12/21 07:52:02;;;;;;;79.30;36.15;;;;;;;-1.74;100.00;98853.47;5109077;28;20059;-77
2021/12/21 07:54:28;;;;;;;83.93;39.67;;;;;;;-1.65;100.00;98842.41;5109598;28;20028;-79
2021/12/21 07:56:54;;;;;;;73.53;35.65;;;;;;;-1.53;100.00;98853.41;5110414;28;20043;-77
2021/12/21 07:59:20;;;;;;;70.70;33.53;;;;;;;-1.40;100.00;98844.63;5108164;28;20015;-77
2021/12/21 08:01:46;;;;;;;73.53;35.97;;;;;;;-1.44;100.00;98852.22;5108246;28;20083;-77
2021/12/21 08:04:11;;;;;;;91.15;38.78;;;;;;;-1.30;100.00;98850.47;5109921;28;20024;-78
2021/12/21 08:06:37;;;;;;;77.78;37.35;;;;;;;-1.31;100.00;98859.53;5110442;28;20077;-77
2021/12/21 08:09:05;;;;;;;81.85;40.45;;;;;;;-1.32;100.00;98853.34;5110521;28;20536;-78
2021/12/21 08:14:00;;;;;;;80.40;37.42;;;;;;;-1.29;100.00;98862.84;5110436;28;20036;-78
2021/12/21 08:16:26;;;;;;;84.00;39.47;;;;;;;-1.17;100.00;98856.75;5109121;28;20036;-78
2021/12/21 08:18:51;;;;;;;80.15;38.60;;;;;;;-1.03;100.00;98857.63;5109015;28;20358;-80
2021/12/21 08:21:18;;;;;;;88.35;38.55;;;;;;;-1.04;100.00;98863.19;5109869;28;20032;-79
2021/12/21 08:23:44;;;;;;;89.75;41.42;;;;;;;-1.10;100.00;98860.25;5107993;28;20713;-77
2021/12/21 08:26:10;;;;;;;90.13;40.63;;;;;;;-1.01;100.00;98849.38;5111872;28;20027;-78
2021/12/21 08:28:36;;;;;;;82.32;40.30;;;;;;;-1.15;100.00;98862.72;5116069;28;20055;-78
2021/12/21 08:31:01;;;;;;;87.63;40.75;;;;;;;-1.12;100.00;98865.00;5115099;28;20096;-79
2021/12/21 08:33:27;;;;;;;91.72;41.40;;;;;;;-1.08;100.00;98876.19;5115138;28;20031;-78
2021/12/21 08:35:53;;;;;;;87.20;43.40;;;;;;;-0.99;100.00;98863.41;5112943;28;20094;-81
2021/12/21 08:38:20;;;;;;;91.80;43.70;;;;;;;-1.06;100.00;98874.13;5112685;28;20089;-77
2021/12/21 08:40:49;;;;;;;95.60;43.25;;;;;;;-0.95;100.00;98859.31;5111696;28;20024;-78
2021/12/21 08:43:18;;;;;;;89.00;42.95;;;;;;;-0.75;100.00;98874.47;5113309;28;20011;-77
2021/12/21 08:45:47;;;;;;;94.47;41.08;;;;;;;-0.83;100.00;98855.03;5113374;28;20040;-78
2021/12/21 08:48:14;;;;;;;84.95;40.80;;;;;;;-0.85;100.00;98873.22;5113221;28;20035;-77
2021/12/21 08:50:39;;;;;;;88.60;39.58;;;;;;;-0.97;100.00;98872.91;5113424;28;20027;-77
2021/12/21 08:53:05;;;;;;;93.50;43.72;;;;;;;-0.97;100.00;98866.75;5103992;28;20032;-77
2021/12/21 08:55:31;;;;;;;85.82;38.42;;;;;;;-0.99;100.00;98874.16;5093045;28;20468;-76
2021/12/21 08:57:56;;;;;;;95.93;44.05;;;;;;;-0.94;100.00;98871.72;5103608;28;20026;-77
2021/12/21 09:00:22;;;;;;;90.88;42.50;;;;;;;-0.87;100.00;98877.94;5112092;28;20422;-77
2021/12/21 09:02:48;;;;;;;96.10;45.58;;;;;;;-0.82;100.00;98868.28;5113505;28;20054;-79
2021/12/21 09:05:16;;;;;;;100.07;45.67;;;;;;;-0.93;100.00;98868.00;5114042;28;20016;-78
2021/12/21 09:07:42;;;;;;;109.78;44.55;;;;;;;-0.96;100.00;98868.38;5114791;28;20028;-77
2021/12/21 09:10:09;;;;;;;107.63;45.25;;;;;;;-0.84;100.00;98883.72;5102471;28;20097;-78
2021/12/21 09:12:35;;;;;;;104.63;47.35;;;;;;;-0.75;100.00;98884.41;5107497;28;20026;-78
2021/12/21 09:15:02;;;;;;;101.65;46.35;;;;;;;-0.67;100.00;98879.69;5113653;28;20066;-77
2021/12/21 09:17:28;;;;;;;102.20;47.17;;;;;;;-0.55;100.00;98882.59;5113363;28;20019;-77
2021/12/21 09:19:54;;;;;;;103.55;48.53;;;;;;;-0.58;100.00;98877.63;5110656;28;20093;-76
2021/12/21 09:22:19;;;;;;;96.72;43.58;;;;;;;-0.56;100.00;98878.25;5111325;28;20651;-76
2021/12/21 09:24:46;;;;;;;111.22;47.47;;;;;;;-0.46;100.00;98881.41;5110316;28;20024;-83
2021/12/21 09:27:12;;;;;;;113.60;49.60;;;;;;;-0.57;100.00;98884.69;5115248;28;20018;-80
2021/12/21 09:29:38;;;;;;;112.13;48.90;;;;;;;-0.63;100.00;98880.13;5122539;28;20047;-78
2021/12/21 09:32:06;;;;;;;98.97;47.55;;;;;;;-0.42;100.00;98882.66;5113035;28;20554;-79
2021/12/21 09:34:31;;;;;;;100.13;46.72;;;;;;;-0.34;100.00;98871.72;5111409;28;20047;-80
2021/12/21 09:36:57;;;;;;;102.72;47.30;;;;;;;-0.50;100.00;98869.38;5113057;28;20507;-78
2021/12/21 09:39:22;;;;;;;131.48;61.75;;;;;;;-0.50;100.00;98869.38;5114237;28;20024;-82
2021/12/21 09:41:48;;;;;;;134.48;65.82;;;;;;;-0.45;100.00;98863.41;5111256;28;20028;-78
2021/12/21 09:44:13;;;;;;;132.55;63.70;;;;;;;-0.47;100.00;98858.25;5112958;28;20028;-83
2021/12/21 09:46:39;;;;;;;120.22;58.30;;;;;;;-0.39;100.00;98855.38;5111821;28;20028;-79
2021/12/21 09:49:04;;;;;;;114.82;52.58;;;;;;;-0.33;100.00;98857.25;5108872;28;20046;-78
2021/12/21 09:51:30;;;;;;;106.25;49.55;;;;;;;-0.31;100.00;98852.50;5109816;28;20020;-78
2021/12/21 09:53:56;;;;;;;107.07;51.47;;;;;;;-0.42;100.00;98858.47;5110504;28;20503;-77
2021/12/21 09:56:22;;;;;;;109.38;49.58;;;;;;;-0.11;100.00;98853.38;5110473;28;20019;-78
2021/12/21 09:58:47;;;;;;;106.97;46.72;;;;;;;-0.06;100.00;98850.03;5107333;28;20031;-77
2021/12/21 10:01:14;;;;;;;102.22;47.88;;;;;;;0.06;100.00;98851.13;5110052;28;20016;-76
2021/12/21 10:03:40;;;;;;;99.07;48.65;;;;;;;0.18;100.00;98846.78;5110797;28;20485;-77
2021/12/21 10:06:10;;;;;;;100.35;47.45;;;;;;;0.38;100.00;98852.13;5107826;28;20032;-78
2021/12/21 10:08:35;;;;;;;99.78;45.92;;;;;;;0.40;100.00;98845.53;5105341;28;20023;-81
2021/12/21 10:11:02;;;;;;;87.45;44.75;;;;;;;0.49;100.00;98838.06;5101555;28;20101;-78
2021/12/21 10:13:28;;;;;;;93.28;45.30;;;;;;;0.51;100.00;98833.28;5096721;28;20020;-79
2021/12/21 10:15:57;;;;;;;86.03;40.22;;;;;;;0.60;100.00;98834.72;5100787;28;20781;-79
2021/12/21 10:18:30;;;;;;;81.85;40.92;;;;;;;0.77;100.00;98827.84;5104547;28;20015;-82
2021/12/21 10:20:58;;;;;;;77.32;38.47;;;;;;;1.00;100.00;98825.47;5108855;28;20103;-83
2021/12/21 10:23:28;;;;;;;80.38;39.30;;;;;;;1.46;100.00;98829.84;5099422;28;20080;-78
2021/12/21 10:25:57;;;;;;;74.82;36.47;;;;;;;1.78;100.00;98828.00;5121727;28;20072;-87
2021/12/21 10:28:37;;;;;;;64.85;36.10;;;;;;;2.90;100.00;98825.97;5119191;27;20016;-90
2021/12/21 10:31:05;;;;;;;70.00;34.40;;;;;;;3.65;100.00;98831.91;5124090;28;20442;-87
2021/12/21 10:33:31;;;;;;;59.88;35.60;;;;;;;4.12;89.50;98828.28;5132742;28;20023;-87
2021/12/21 10:35:59;;;;;;;59.15;34.03;;;;;;;4.68;86.65;98827.75;5132435;28;20023;-86
2021/12/21 10:38:33;;;;;;;61.45;33.28;;;;;;;5.75;81.29;98818.06;5134545;28;20067;-82
2021/12/21 10:41:06;;;;;;;59.25;34.80;;;;;;;6.50;77.25;98820.47;5134291;28;21559;-87
2021/12/21 10:43:31;;;;;;;59.10;31.98;;;;;;;6.44;74.88;98808.72;5132140;28;20028;-90
2021/12/21 10:45:57;;;;;;;68.07;36.50;;;;;;;6.73;74.84;98812.16;5108794;28;20077;-79
2021/12/21 10:48:23;;;;;;;66.60;36.97;;;;;;;6.30;75.20;98809.28;5088017;28;20528;-78
2021/12/21 10:50:50;;;;;;;61.63;37.25;;;;;;;5.16;79.22;98807.66;5089859;28;20049;-78
2021/12/21 10:53:18;;;;;;;70.72;41.30;;;;;;;4.39;84.50;98801.59;5093951;28;20047;-78
2021/12/21 10:55:44;;;;;;;76.05;44.05;;;;;;;3.73;89.43;98796.41;5088879;28;20063;-77
2021/12/21 10:58:16;;;;;;;76.85;43.63;;;;;;;2.80;94.12;98789.72;5092221;28;20068;-77
2021/12/21 11:01:04;;;;;;;85.13;48.20;;;;;;;2.27;100.00;98786.72;5098350;28;20480;-77
2021/12/21 11:03:55;;;;;;;87.78;46.63;;;;;;;1.99;100.00;98771.81;5092544;28;20032;-84
2021/12/21 11:06:30;;;;;;;84.32;43.45;;;;;;;1.81;100.00;98769.06;5098988;28;20032;-77
2021/12/21 11:08:57;;;;;;;91.78;47.30;;;;;;;1.95;100.00;98769.78;5106715;28;20701;-78
2021/12/21 11:11:28;;;;;;;87.88;46.40;;;;;;;2.03;100.00;98767.66;5107912;28;20217;-77
2021/12/21 11:14:06;;;;;;;82.82;45.55;;;;;;;2.07;100.00;98763.44;5091473;28;20085;-77
2021/12/21 11:17:00;;;;;;;83.18;45.65;;;;;;;2.11;100.00;98759.28;5100362;28;20035;-79
2021/12/21 11:19:25;;;;;;;83.25;42.67;;;;;;;2.25;100.00;98749.19;5096553;28;20036;-77
2021/12/21 11:21:52;;;;;;;79.68;43.28;;;;;;;2.28;100.00;98758.72;5104649;28;20016;-78
2021/12/21 11:24:19;;;;;;;82.07;42.88;;;;;;;2.07;100.00;98752.66;5109914;28;20107;-78
2021/12/21 11:26:47;;;;;;;80.60;42.15;;;;;;;2.17;100.00;98749.44;5102016;28;20072;-77
2021/12/21 11:29:16;;;;;;;81.43;43.00;;;;;;;2.23;100.00;98745.88;5092292;28;20097;-79
2021/12/21 11:31:48;;;;;;;75.15;42.72;;;;;;;2.00;100.00;98743.81;5100585;28;20062;-79
2021/12/21 11:34:18;;;;;;;82.15;45.72;;;;;;;1.95;100.00;98738.25;5098184;28;20032;-77
2021/12/21 11:39:33;;;;;;;80.43;44.05;;;;;;;1.75;100.00;98718.72;5110219;28;20173;-78
2021/12/21 11:42:04;;;;;;;79.63;42.40;;;;;;;1.71;100.00;98717.50;5110256;28;20038;-78
2021/12/21 11:44:49;;;;;;;84.35;44.78;;;;;;;1.73;100.00;98706.47;5110789;28;20026;-76
2021/12/21 11:47:20;;;;;;;75.45;43.92;;;;;;;1.65;100.00;98707.59;5110651;28;20038;-76
2021/12/21 11:49:50;;;;;;;80.43;43.83;;;;;;;1.76;100.00;98706.88;5107968;28;20012;-78
2021/12/21 11:52:20;;;;;;;81.55;41.85;;;;;;;1.83;100.00;98707.66;5105038;28;20068;-77
2021/12/21 11:54:55;;;;;;;80.07;43.15;;;;;;;1.99;100.00;98708.97;5108442;28;20028;-77
2021/12/21 11:57:41;;;;;;;82.63;43.40;;;;;;;1.96;100.00;98704.00;5107675;28;20043;-80
2021/12/21 12:00:12;;;;;;;79.68;42.67;;;;;;;2.06;100.00;98702.47;5107883;28;20492;-79
2021/12/21 12:02:38;;;;;;;76.28;40.20;;;;;;;1.95;100.00;98699.66;5114246;28;20031;-77
2021/12/21 12:05:28;;;;;;;86.88;44.38;;;;;;;2.02;100.00;98690.47;5114111;28;20085;-78
2021/12/21 12:08:11;;;;;;;77.68;41.92;;;;;;;2.06;100.00;98696.25;5101808;28;20537;-76
2021/12/21 12:10:45;;;;;;;81.53;42.75;;;;;;;1.80;100.00;98689.22;5112974;28;20032;-79
2021/12/21 12:13:33;;;;;;;76.75;41.10;;;;;;;1.87;100.00;98681.91;5111383;28;20027;-78
2021/12/21 12:16:06;;;;;;;75.63;39.63;;;;;;;1.65;100.00;98691.41;5113955;28;20032;-82
2021/12/21 12:18:50;;;;;;;78.38;40.08;;;;;;;1.57;100.00;98670.94;5112577;28;20020;-76
2021/12/21 12:21:28;;;;;;;82.43;41.78;;;;;;;1.59;100.00;98665.34;5111782;28;20015;-78
2021/12/21 12:23:57;;;;;;;92.53;45.05;;;;;;;1.47;100.00;98667.13;5112221;28;20036;-77
2021/12/21 12:26:24;;;;;;;99.38;48.90;;;;;;;1.60;100.00;98672.38;5112191;28;20011;-81
2021/12/21 12:28:50;;;;;;;100.18;48.40;;;;;;;1.23;100.00;98662.50;5114067;28;20026;-78